Time;durP1;ratioP1;P1;durP2;ratioP2;P2;SDS_P1;SDS_P2;PMS_P1;PMS_P2;Temp;Humidity;BMP_temperature;BMP_pressure;BME280_temperature;BME280_humidity;BME280_pressure;Samples;Min_cycle;Max_cycle;Signal;HPM_P1;HPM_P2
2021/01/11 00:02:36;;;;;;;3.80;3.42;;;;;;;18.07;43.65;101116.77;;;;-50
2021/01/11 00:05:36;;;;;;;3.97;3.53;;;;;;;18.04;43.55;101116.22;;;;-50
2021/01/11 00:08:36;;;;;;;3.73;3.39;;;;;;;18.02;43.55;101109.52;;;;-50
2021/01/11 00:11:38;;;;;;;3.83;3.47;;;;;;;17.99;43.61;101115.31;;;;-50
2021/01/11 00:14:36;;;;;;;3.79;3.40;;;;;;;17.98;43.69;101109.75;;;;-52
2021/01/11 00:17:36;;;;;;;3.65;3.35;;;;;;;17.95;43.62;101116.72;;;;-52
2021/01/11 00:20:36;;;;;;;3.86;3.53;;;;;;;17.94;43.66;101117.28;;;;-52
2021/01/11 00:23:36;;;;;;;3.69;3.39;;;;;;;17.91;43.62;101119.91;;;;-48
2021/01/11 00:26:36;;;;;;;3.75;3.45;;;;;;;17.89;43.64;101115.31;;;;-52
2021/01/11 00:29:36;;;;;;;3.83;3.47;;;;;;;17.87;43.76;101119.65;;;;-52
2021/01/11 00:32:36;;;;;;;3.64;3.34;;;;;;;17.85;43.63;101120.90;;;;-47
2021/01/11 00:35:36;;;;;;;3.79;3.49;;;;;;;17.83;43.68;101121.98;;;;-48
2021/01/11 00:38:36;;;;;;;3.60;3.30;;;;;;;17.81;43.64;101120.11;;;;-48
2021/01/11 00:41:36;;;;;;;4.25;3.50;;;;;;;17.78;43.69;101123.44;;;;-51
2021/01/11 00:44:36;;;;;;;3.59;3.29;;;;;;;17.77;43.86;101121.39;;;;-50
2021/01/11 00:47:36;;;;;;;4.43;3.47;;;;;;;17.76;43.77;101127.77;;;;-50
2021/01/11 00:50:36;;;;;;;4.02;3.61;;;;;;;17.73;43.71;101130.62;;;;-50
2021/01/11 00:53:37;;;;;;;3.67;3.36;;;;;;;17.72;43.67;101134.55;;;;-50
2021/01/11 00:56:36;;;;;;;3.96;3.56;;;;;;;17.70;43.63;101143.22;;;;-50
2021/01/11 00:59:36;;;;;;;3.85;3.45;;;;;;;17.69;43.76;101142.11;;;;-50
2021/01/11 01:02:36;;;;;;;5.07;3.68;;;;;;;17.65;43.76;101148.02;;;;-51
2021/01/11 01:05:36;;;;;;;3.68;3.35;;;;;;;17.64;43.72;101147.84;;;;-48
2021/01/11 01:08:36;;;;;;;4.03;3.63;;;;;;;17.62;43.65;101147.14;;;;-47
2021/01/11 01:11:36;;;;;;;3.95;3.55;;;;;;;17.60;43.76;101146.77;;;;-48
2021/01/11 01:14:36;;;;;;;4.18;3.38;;;;;;;17.58;43.73;101144.12;;;;-52
2021/01/11 01:17:36;;;;;;;3.43;3.13;;;;;;;17.57;43.73;101142.30;;;;-52
2021/01/11 01:20:36;;;;;;;3.66;3.36;;;;;;;17.55;43.82;101142.66;;;;-52
2021/01/11 01:23:36;;;;;;;3.72;3.42;;;;;;;17.54;43.84;101141.67;;;;-50
2021/01/11 01:26:36;;;;;;;3.69;3.39;;;;;;;17.52;43.71;101136.77;;;;-50
2021/01/11 01:29:36;;;;;;;3.65;3.35;;;;;;;17.49;43.67;101138.97;;;;-50
2021/01/11 01:32:36;;;;;;;3.77;3.47;;;;;;;17.49;43.79;101139.98;;;;-50
2021/01/11 01:35:36;;;;;;;3.49;3.19;;;;;;;17.47;43.75;101141.43;;;;-47
2021/01/11 01:38:36;;;;;;;3.60;3.30;;;;;;;17.46;43.77;101146.80;;;;-47
2021/01/11 01:41:36;;;;;;;3.67;3.37;;;;;;;17.44;43.75;101149.75;;;;-47
2021/01/11 01:44:36;;;;;;;3.49;3.19;;;;;;;17.43;43.72;101151.25;;;;-47
2021/01/11 01:47:36;;;;;;;3.67;3.37;;;;;;;17.41;43.85;101145.88;;;;-50
2021/01/11 01:50:36;;;;;;;3.67;3.37;;;;;;;17.39;43.74;101146.48;;;;-50
2021/01/11 01:53:36;;;;;;;3.71;3.36;;;;;;;17.37;43.60;101148.86;;;;-50
2021/01/11 01:56:36;;;;;;;4.18;3.39;;;;;;;17.37;43.80;101146.80;;;;-50
2021/01/11 01:59:36;;;;;;;4.00;3.63;;;;;;;17.36;43.72;101149.78;;;;-50
2021/01/11 02:02:36;;;;;;;3.51;3.21;;;;;;;17.34;43.64;101148.20;;;;-50
2021/01/11 02:05:36;;;;;;;3.58;3.28;;;;;;;17.33;43.76;101150.91;;;;-50
2021/01/11 02:08:36;;;;;;;3.98;3.58;;;;;;;17.30;43.65;101150.92;;;;-50
2021/01/11 02:11:36;;;;;;;3.60;3.30;;;;;;;17.28;43.75;101144.72;;;;-50
2021/01/11 02:14:36;;;;;;;3.74;3.42;;;;;;;17.28;43.65;101146.66;;;;-50
2021/01/11 02:17:36;;;;;;;3.48;3.18;;;;;;;17.26;43.66;101148.79;;;;-50
2021/01/11 02:20:36;;;;;;;3.79;3.39;;;;;;;17.25;43.63;101152.34;;;;-50
2021/01/11 02:23:36;;;;;;;3.75;3.45;;;;;;;17.24;43.71;101150.59;;;;-50
2021/01/11 02:26:36;;;;;;;3.77;3.47;;;;;;;17.23;43.59;101159.98;;;;-50
2021/01/11 02:29:36;;;;;;;3.61;3.31;;;;;;;17.22;43.64;101158.16;;;;-50
2021/01/11 02:32:36;;;;;;;3.69;3.39;;;;;;;17.21;43.61;101165.76;;;;-50
2021/01/11 02:35:36;;;;;;;3.84;3.53;;;;;;;17.20;43.61;101159.07;;;;-50
2021/01/11 02:38:37;;;;;;;3.68;3.37;;;;;;;17.18;43.65;101156.87;;;;-50
2021/01/11 02:41:36;;;;;;;3.45;3.15;;;;;;;17.17;43.65;101153.98;;;;-50
2021/01/11 02:44:36;;;;;;;3.70;3.40;;;;;;;17.15;43.62;101154.98;;;;-52
2021/01/11 02:47:36;;;;;;;3.53;3.23;;;;;;;17.14;43.67;101154.94;;;;-52
2021/01/11 02:50:36;;;;;;;3.56;3.26;;;;;;;17.13;43.69;101154.04;;;;-50
2021/01/11 02:53:36;;;;;;;3.64;3.31;;;;;;;17.12;43.63;101152.17;;;;-50
2021/01/11 02:56:36;;;;;;;3.83;3.51;;;;;;;17.10;43.73;101147.98;;;;-50
2021/01/11 02:59:36;;;;;;;3.66;3.36;;;;;;;17.10;43.68;101140.73;;;;-52
2021/01/11 03:02:36;;;;;;;3.84;3.54;;;;;;;17.08;43.64;101144.69;;;;-52
2021/01/11 03:05:36;;;;;;;3.49;3.19;;;;;;;17.07;43.63;101144.16;;;;-48
2021/01/11 03:08:36;;;;;;;3.90;3.50;;;;;;;17.06;43.63;101139.61;;;;-48
2021/01/11 03:11:36;;;;;;;3.69;3.39;;;;;;;17.05;43.69;101134.87;;;;-48
2021/01/11 03:14:36;;;;;;;3.86;3.50;;;;;;;17.03;43.57;101133.61;;;;-48
2021/01/11 03:17:36;;;;;;;3.83;3.49;;;;;;;17.02;43.63;101131.48;;;;-47
2021/01/11 03:20:36;;;;;;;3.61;3.31;;;;;;;17.01;43.59;101134.20;;;;-47
2021/01/11 03:23:36;;;;;;;3.64;3.34;;;;;;;17.00;43.54;101130.86;;;;-50
2021/01/11 03:26:36;;;;;;;3.46;3.16;;;;;;;16.98;43.68;101122.30;;;;-50
2021/01/11 03:29:36;;;;;;;3.65;3.35;;;;;;;16.97;43.58;101116.34;;;;-50
2021/01/11 03:32:36;;;;;;;3.92;3.58;;;;;;;16.96;43.68;101115.37;;;;-50
2021/01/11 03:35:36;;;;;;;3.49;3.19;;;;;;;16.95;43.54;101112.81;;;;-50
2021/01/11 03:38:36;;;;;;;3.77;3.43;;;;;;;16.94;43.65;101105.59;;;;-50
2021/01/11 03:41:36;;;;;;;3.46;3.16;;;;;;;16.93;43.67;101104.82;;;;-50
2021/01/11 03:44:36;;;;;;;3.78;3.48;;;;;;;16.92;43.67;101106.03;;;;-50
2021/01/11 03:47:36;;;;;;;3.53;3.23;;;;;;;16.90;43.59;101106.30;;;;-50
2021/01/11 03:50:36;;;;;;;3.65;3.35;;;;;;;16.90;43.65;101108.15;;;;-48
2021/01/11 03:53:36;;;;;;;3.49;3.19;;;;;;;16.89;43.64;101098.96;;;;-52
2021/01/11 03:56:36;;;;;;;3.57;3.27;;;;;;;16.88;43.67;101103.64;;;;-52
2021/01/11 03:59:36;;;;;;;3.71;3.38;;;;;;;16.87;43.65;101097.28;;;;-47
2021/01/11 04:02:36;;;;;;;3.91;3.53;;;;;;;16.86;43.62;101101.08;;;;-48
2021/01/11 04:05:36;;;;;;;3.59;3.29;;;;;;;16.84;43.70;101100.30;;;;-48
2021/01/11 04:08:36;;;;;;;3.53;3.23;;;;;;;16.84;43.64;101098.52;;;;-47
2021/01/11 04:11:36;;;;;;;3.61;3.31;;;;;;;16.82;43.66;101099.20;;;;-47
2021/01/11 04:14:36;;;;;;;3.62;3.32;;;;;;;16.82;43.66;101110.84;;;;-50
2021/01/11 04:17:36;;;;;;;3.55;3.22;;;;;;;16.82;43.57;101112.38;;;;-50
2021/01/11 04:20:36;;;;;;;3.73;3.38;;;;;;;16.81;43.80;101111.69;;;;-48
2021/01/11 04:23:36;;;;;;;3.85;3.51;;;;;;;16.79;43.67;101113.58;;;;-47
2021/01/11 04:26:36;;;;;;;3.95;3.65;;;;;;;16.77;43.60;101113.20;;;;-47
2021/01/11 04:29:36;;;;;;;3.88;3.45;;;;;;;16.77;43.65;101114.82;;;;-50
2021/01/11 04:32:36;;;;;;;3.55;3.25;;;;;;;16.76;43.58;101115.66;;;;-52
2021/01/11 04:35:36;;;;;;;3.68;3.35;;;;;;;16.74;43.60;101112.45;;;;-52
2021/01/11 04:38:36;;;;;;;3.82;3.52;;;;;;;16.74;43.67;101109.30;;;;-52
2021/01/11 04:41:36;;;;;;;3.58;3.28;;;;;;;16.73;43.69;101114.62;;;;-52
2021/01/11 04:44:36;;;;;;;6.94;3.15;;;;;;;16.72;43.65;101112.56;;;;-47
2021/01/11 04:47:36;;;;;;;3.54;3.24;;;;;;;16.71;43.61;101114.16;;;;-47
2021/01/11 04:50:36;;;;;;;3.55;3.25;;;;;;;16.70;43.65;101109.50;;;;-47
2021/01/11 04:53:36;;;;;;;3.70;3.40;;;;;;;16.68;43.73;101113.41;;;;-50
2021/01/11 04:56:36;;;;;;;3.51;3.21;;;;;;;16.67;43.75;101111.37;;;;-50
2021/01/11 04:59:36;;;;;;;3.63;3.33;;;;;;;16.66;43.71;101113.44;;;;-47
2021/01/11 05:02:36;;;;;;;3.57;3.20;;;;;;;16.65;43.66;101113.26;;;;-50
2021/01/11 05:05:36;;;;;;;3.70;3.39;;;;;;;16.65;43.75;101115.04;;;;-47
2021/01/11 05:08:36;;;;;;;3.52;3.22;;;;;;;16.64;43.69;101112.00;;;;-48
2021/01/11 05:11:36;;;;;;;3.55;3.25;;;;;;;16.64;43.54;101109.73;;;;-51
2021/01/11 05:14:36;;;;;;;3.43;3.13;;;;;;;16.63;43.50;101111.98;;;;-50
2021/01/11 05:17:36;;;;;;;3.72;3.42;;;;;;;16.62;43.63;101115.42;;;;-50
2021/01/11 05:20:36;;;;;;;3.57;3.27;;;;;;;16.60;43.52;101113.53;;;;-47
2021/01/11 05:23:36;;;;;;;3.45;3.15;;;;;;;16.60;43.61;101115.48;;;;-48
2021/01/11 05:26:36;;;;;;;3.50;3.13;;;;;;;16.59;43.73;101118.27;;;;-47
2021/01/11 05:29:37;;;;;;;3.61;3.31;;;;;;;16.57;43.54;101115.61;;;;-52
2021/01/11 05:32:36;;;;;;;3.77;3.47;;;;;;;16.56;43.58;101116.17;;;;-50
2021/01/11 05:35:37;;;;;;;3.54;3.24;;;;;;;16.55;43.64;101110.22;;;;-48
2021/01/11 05:38:36;;;;;;;3.49;3.19;;;;;;;16.55;43.74;101104.55;;;;-50
2021/01/11 05:41:36;;;;;;;3.61;3.31;;;;;;;16.55;43.59;101103.90;;;;-50
2021/01/11 05:44:36;;;;;;;3.49;3.19;;;;;;;16.54;43.50;101098.96;;;;-50
2021/01/11 05:47:36;;;;;;;3.59;3.29;;;;;;;16.54;43.68;101098.88;;;;-50
2021/01/11 05:50:36;;;;;;;3.62;3.22;;;;;;;16.53;43.54;101092.03;;;;-50
2021/01/11 05:53:36;;;;;;;3.81;3.51;;;;;;;16.52;43.60;101092.11;;;;-52
2021/01/11 05:56:36;;;;;;;3.54;3.24;;;;;;;16.51;43.63;101086.56;;;;-52
2021/01/11 05:59:36;;;;;;;3.85;3.43;;;;;;;16.50;43.67;101087.59;;;;-50
2021/01/11 06:02:36;;;;;;;3.45;3.15;;;;;;;16.50;43.67;101089.22;;;;-50
2021/01/11 06:05:36;;;;;;;3.59;3.29;;;;;;;16.49;43.63;101095.39;;;;-47
2021/01/11 06:08:36;;;;;;;3.66;3.29;;;;;;;16.48;43.49;101092.95;;;;-52
2021/01/11 06:11:36;;;;;;;3.51;3.21;;;;;;;16.47;43.53;101089.44;;;;-50
2021/01/11 06:14:36;;;;;;;3.61;3.31;;;;;;;16.47;43.51;101091.94;;;;-50
2021/01/11 06:17:36;;;;;;;3.58;3.28;;;;;;;16.46;43.42;101085.61;;;;-50
2021/01/11 06:20:36;;;;;;;3.43;3.13;;;;;;;16.47;43.48;101084.18;;;;-50
2021/01/11 06:23:38;;;;;;;3.50;3.20;;;;;;;16.48;43.47;101089.31;;;;-52
2021/01/11 06:26:36;;;;;;;3.48;3.18;;;;;;;16.50;43.51;101091.64;;;;-47
2021/01/11 06:29:36;;;;;;;3.49;3.19;;;;;;;16.52;43.59;101093.31;;;;-52
2021/01/11 06:32:36;;;;;;;3.53;3.23;;;;;;;16.55;43.52;101093.63;;;;-52
2021/01/11 06:35:36;;;;;;;3.37;3.07;;;;;;;16.57;43.47;101092.16;;;;-50
2021/01/11 06:38:36;;;;;;;3.13;2.83;;;;;;;16.60;43.41;101102.13;;;;-50
2021/01/11 06:41:36;;;;;;;3.39;3.09;;;;;;;16.62;43.53;101106.72;;;;-52
2021/01/11 06:44:36;;;;;;;3.29;2.99;;;;;;;16.63;43.83;101109.00;;;;-47
2021/01/11 06:47:36;;;;;;;3.41;3.11;;;;;;;16.66;43.82;101108.66;;;;-48
2021/01/11 06:50:36;;;;;;;3.35;3.05;;;;;;;16.69;43.92;101111.43;;;;-50
2021/01/11 06:53:36;;;;;;;3.29;2.99;;;;;;;16.72;44.05;101115.22;;;;-47
2021/01/11 06:56:36;;;;;;;3.45;3.15;;;;;;;16.75;44.04;101115.17;;;;-47
2021/01/11 06:59:36;;;;;;;3.29;2.99;;;;;;;16.79;44.07;101114.63;;;;-48
2021/01/11 07:02:36;;;;;;;3.37;3.07;;;;;;;16.83;43.84;101118.42;;;;-52
2021/01/11 07:05:36;;;;;;;3.21;2.91;;;;;;;16.87;43.97;101118.66;;;;-52
2021/01/11 07:08:36;;;;;;;3.13;2.93;;;;;;;16.90;43.99;101119.48;;;;-52
2021/01/11 07:11:36;;;;;;;3.45;3.15;;;;;;;16.95;44.04;101121.39;;;;-50
2021/01/11 07:14:36;;;;;;;3.21;2.91;;;;;;;16.98;44.02;101128.69;;;;-50
2021/01/11 07:17:36;;;;;;;3.36;3.06;;;;;;;17.02;44.01;101133.17;;;;-51
2021/01/11 07:20:36;;;;;;;3.16;2.89;;;;;;;17.05;44.01;101124.51;;;;-52
2021/01/11 07:23:36;;;;;;;3.22;2.92;;;;;;;17.08;44.04;101133.67;;;;-52
2021/01/11 07:26:36;;;;;;;3.20;2.90;;;;;;;17.10;44.00;101129.68;;;;-47
2021/01/11 07:29:36;;;;;;;3.27;2.97;;;;;;;17.11;43.94;101131.64;;;;-47
2021/01/11 07:32:36;;;;;;;3.21;2.91;;;;;;;17.13;44.00;101131.05;;;;-52
2021/01/11 07:35:36;;;;;;;3.10;2.80;;;;;;;17.14;43.98;101128.01;;;;-50
2021/01/11 07:38:36;;;;;;;3.37;3.07;;;;;;;17.14;43.97;101114.73;;;;-51
2021/01/11 07:41:36;;;;;;;3.27;2.99;;;;;;;17.15;43.98;101099.83;;;;-50
2021/01/11 07:44:36;;;;;;;3.39;3.09;;;;;;;17.16;43.90;101121.02;;;;-50
2021/01/11 07:47:36;;;;;;;3.21;2.91;;;;;;;17.16;43.95;101135.16;;;;-50
2021/01/11 07:50:36;;;;;;;3.19;2.90;;;;;;;17.17;43.86;101116.25;;;;-50
2021/01/11 07:53:36;;;;;;;3.17;2.91;;;;;;;17.16;43.95;101106.92;;;;-50
2021/01/11 07:56:36;;;;;;;5.79;3.14;;;;;;;17.20;44.14;101109.42;;;;-51
2021/01/11 07:59:36;;;;;;;3.26;2.96;;;;;;;17.22;44.21;101120.17;;;;-51
2021/01/11 08:02:36;;;;;;;2.97;2.72;;;;;;;17.24;44.37;101123.50;;;;-50
2021/01/11 08:05:36;;;;;;;3.07;2.79;;;;;;;17.29;44.20;101118.43;;;;-52
2021/01/11 08:08:36;;;;;;;3.21;2.91;;;;;;;17.34;44.16;101119.03;;;;-52
2021/01/11 08:11:36;;;;;;;2.93;2.72;;;;;;;17.36;44.13;101128.73;;;;-52
2021/01/11 08:14:36;;;;;;;3.32;3.03;;;;;;;17.40;44.09;101130.77;;;;-52
2021/01/11 08:17:36;;;;;;;3.34;3.04;;;;;;;17.44;44.01;101116.70;;;;-54
2021/01/11 08:20:36;;;;;;;3.36;3.06;;;;;;;17.48;44.08;101114.45;;;;-54
2021/01/11 08:23:36;;;;;;;3.29;2.99;;;;;;;17.51;44.14;101127.80;;;;-56
2021/01/11 08:26:36;;;;;;;2.97;2.76;;;;;;;17.55;44.06;101143.78;;;;-55
2021/01/11 08:29:36;;;;;;;3.28;2.83;;;;;;;17.58;44.07;101154.17;;;;-55
2021/01/11 08:32:36;;;;;;;3.15;2.85;;;;;;;17.61;44.12;101151.31;;;;-54
2021/01/11 08:35:36;;;;;;;2.94;2.74;;;;;;;17.64;44.04;101144.60;;;;-55
2021/01/11 08:38:36;;;;;;;3.21;2.93;;;;;;;17.68;43.97;101146.64;;;;-54
2021/01/11 08:41:36;;;;;;;3.07;2.77;;;;;;;17.71;43.97;101152.55;;;;-54
2021/01/11 08:44:37;;;;;;;3.05;2.81;;;;;;;17.74;43.87;101146.92;;;;-54
2021/01/11 08:47:37;;;;;;;3.23;2.93;;;;;;;17.77;43.93;101142.47;;;;-54
2021/01/11 08:50:36;;;;;;;3.28;2.98;;;;;;;17.80;43.78;101143.67;;;;-52
2021/01/11 08:53:36;;;;;;;8.41;3.80;;;;;;;17.79;43.26;101137.50;;;;-50
2021/01/11 08:56:37;;;;;;;6.43;4.14;;;;;;;17.83;43.05;101139.00;;;;-59
2021/01/11 08:59:36;;;;;;;5.45;3.89;;;;;;;17.85;43.06;101139.70;;;;-57
2021/01/11 09:02:36;;;;;;;5.13;3.91;;;;;;;17.86;42.73;101145.39;;;;-60
2021/01/11 09:05:36;;;;;;;4.94;3.92;;;;;;;17.89;42.67;101151.23;;;;-46
2021/01/11 09:08:36;;;;;;;5.36;4.35;;;;;;;17.91;42.33;101142.66;;;;-44
2021/01/11 09:11:36;;;;;;;4.58;4.15;;;;;;;17.93;42.78;101144.61;;;;-52
2021/01/11 09:14:36;;;;;;;5.49;3.63;;;;;;;17.95;42.95;101152.77;;;;-52
2021/01/11 09:17:36;;;;;;;4.93;3.39;;;;;;;17.97;43.04;101159.59;;;;-53
2021/01/11 09:20:36;;;;;;;4.39;3.59;;;;;;;17.98;43.13;101161.17;;;;-52
2021/01/11 09:23:36;;;;;;;3.70;3.32;;;;;;;18.01;43.16;101165.03;;;;-52
2021/01/11 09:26:36;;;;;;;4.63;3.41;;;;;;;18.01;43.21;101165.16;;;;-53
2021/01/11 09:29:37;;;;;;;7.63;3.33;;;;;;;18.03;43.21;101166.06;;;;-62
2021/01/11 09:32:36;;;;;;;4.35;3.32;;;;;;;18.05;43.11;101170.44;;;;-62
2021/01/11 09:35:36;;;;;;;3.91;3.41;;;;;;;18.07;43.16;101169.56;;;;-52
2021/01/11 09:38:37;;;;;;;3.92;3.52;;;;;;;18.08;43.23;101169.93;;;;-52
2021/01/11 09:41:36;;;;;;;4.33;3.31;;;;;;;18.10;43.23;101166.98;;;;-52
2021/01/11 09:44:36;;;;;;;4.29;3.61;;;;;;;18.13;43.20;101166.86;;;;-52
2021/01/11 09:47:36;;;;;;;4.38;3.39;;;;;;;18.14;43.26;101161.47;;;;-52
2021/01/11 09:50:39;;;;;;;3.81;3.50;;;;;;;18.17;43.21;101157.22;;;;-62
2021/01/11 09:53:36;;;;;;;3.85;3.45;;;;;;;18.18;43.23;101150.38;;;;-62
2021/01/11 09:56:36;;;;;;;3.57;3.22;;;;;;;18.21;43.26;101145.87;;;;-52
2021/01/11 09:59:36;;;;;;;3.42;3.12;;;;;;;18.23;43.16;101151.93;;;;-52
2021/01/11 10:02:36;;;;;;;3.57;3.27;;;;;;;18.25;43.31;101148.08;;;;-61
2021/01/11 10:05:36;;;;;;;3.54;3.24;;;;;;;18.27;43.22;101151.53;;;;-62
2021/01/11 10:08:36;;;;;;;3.49;3.19;;;;;;;18.28;43.29;101157.58;;;;-62
2021/01/11 10:11:36;;;;;;;3.93;3.53;;;;;;;18.31;43.23;101159.00;;;;-62
2021/01/11 10:14:36;;;;;;;3.67;3.30;;;;;;;18.32;43.30;101164.21;;;;-62
2021/01/11 10:17:36;;;;;;;3.90;3.50;;;;;;;18.34;43.28;101164.02;;;;-52
2021/01/11 10:20:36;;;;;;;3.97;3.45;;;;;;;18.35;43.22;101155.53;;;;-52
2021/01/11 10:23:36;;;;;;;3.50;3.16;;;;;;;18.37;43.29;101151.77;;;;-62
2021/01/11 10:26:36;;;;;;;3.52;3.22;;;;;;;18.38;43.23;101144.71;;;;-61
2021/01/11 10:29:36;;;;;;;3.90;3.29;;;;;;;18.41;43.25;101146.34;;;;-62
2021/01/11 10:32:36;;;;;;;3.53;3.21;;;;;;;18.42;43.27;101153.08;;;;-61
2021/01/11 10:35:36;;;;;;;3.59;3.29;;;;;;;18.44;43.29;101147.52;;;;-61
2021/01/11 10:38:36;;;;;;;3.67;3.36;;;;;;;18.45;43.22;101146.83;;;;-62
2021/01/11 10:41:36;;;;;;;3.67;3.17;;;;;;;18.47;43.27;101151.41;;;;-62
2021/01/11 10:44:36;;;;;;;3.53;3.23;;;;;;;18.48;43.24;101145.75;;;;-61
2021/01/11 10:47:36;;;;;;;3.41;3.09;;;;;;;18.49;43.20;101144.73;;;;-61
2021/01/11 10:50:36;;;;;;;3.37;3.07;;;;;;;18.51;43.24;101143.88;;;;-62
2021/01/11 10:53:36;;;;;;;3.40;3.10;;;;;;;18.53;43.25;101140.47;;;;-62
2021/01/11 10:56:36;;;;;;;3.67;3.34;;;;;;;18.54;43.13;101136.54;;;;-61
2021/01/11 10:59:36;;;;;;;3.64;3.34;;;;;;;18.55;43.23;101137.39;;;;-61
2021/01/11 11:02:36;;;;;;;3.67;3.32;;;;;;;18.56;43.22;101137.80;;;;-61
2021/01/11 11:05:36;;;;;;;3.65;3.28;;;;;;;18.57;43.21;101130.34;;;;-63
2021/01/11 11:08:36;;;;;;;3.37;3.07;;;;;;;18.58;43.15;101121.84;;;;-62
2021/01/11 11:11:36;;;;;;;3.42;3.12;;;;;;;18.60;43.16;101127.89;;;;-61
2021/01/11 11:14:36;;;;;;;3.47;3.17;;;;;;;18.60;43.24;101121.00;;;;-61
2021/01/11 11:17:36;;;;;;;3.59;3.29;;;;;;;18.62;42.98;101118.60;;;;-52
2021/01/11 11:20:36;;;;;;;3.45;3.15;;;;;;;18.63;43.11;101114.39;;;;-52
2021/01/11 11:23:36;;;;;;;3.54;3.24;;;;;;;18.63;43.26;101108.55;;;;-52
2021/01/11 11:26:36;;;;;;;3.60;3.30;;;;;;;18.65;43.09;101106.72;;;;-52
2021/01/11 11:29:36;;;;;;;3.48;3.18;;;;;;;18.67;43.18;101104.00;;;;-61
2021/01/11 11:32:36;;;;;;;3.56;3.26;;;;;;;18.67;43.17;101098.89;;;;-52
2021/01/11 11:35:40;;;;;;;3.81;3.28;;;;;;;18.68;43.16;101094.21;;;;-52
2021/01/11 11:38:36;;;;;;;3.61;3.29;;;;;;;18.68;43.19;101078.78;;;;-51
2021/01/11 11:41:36;;;;;;;3.61;3.31;;;;;;;18.69;43.14;101076.52;;;;-52
2021/01/11 11:44:36;;;;;;;3.62;3.32;;;;;;;18.72;43.05;101075.38;;;;-61
2021/01/11 11:47:36;;;;;;;3.57;3.27;;;;;;;18.72;42.89;101072.45;;;;-61
2021/01/11 11:50:36;;;;;;;3.63;3.31;;;;;;;18.72;43.12;101065.80;;;;-61
2021/01/11 11:53:36;;;;;;;3.62;3.29;;;;;;;18.74;42.99;101059.50;;;;-61
2021/01/11 11:56:36;;;;;;;3.50;3.20;;;;;;;18.75;43.05;101053.81;;;;-61
2021/01/11 11:59:36;;;;;;;3.40;3.10;;;;;;;18.76;43.00;101052.92;;;;-61
2021/01/11 12:02:36;;;;;;;3.50;3.20;;;;;;;18.77;43.03;101039.16;;;;-61
2021/01/11 12:05:36;;;;;;;3.53;3.23;;;;;;;18.77;43.13;101031.69;;;;-62
2021/01/11 12:08:36;;;;;;;3.70;3.24;;;;;;;18.78;43.11;101026.01;;;;-61
2021/01/11 12:11:36;;;;;;;3.35;3.05;;;;;;;18.78;43.18;101025.02;;;;-53
2021/01/11 12:14:36;;;;;;;3.55;3.24;;;;;;;18.80;43.14;101027.41;;;;-52
2021/01/11 12:17:36;;;;;;;3.61;3.31;;;;;;;18.81;43.06;101029.77;;;;-52
2021/01/11 12:20:36;;;;;;;3.44;3.14;;;;;;;18.82;43.05;101023.76;;;;-52
2021/01/11 12:23:36;;;;;;;3.53;3.23;;;;;;;18.84;43.05;101018.27;;;;-52
2021/01/11 12:26:36;;;;;;;3.44;3.13;;;;;;;18.84;43.03;101013.48;;;;-61
2021/01/11 12:29:36;;;;;;;3.73;3.34;;;;;;;18.90;42.89;101015.78;;;;-51
2021/01/11 12:32:39;;;;;;;3.96;3.45;;;;;;;18.92;43.29;101011.03;;;;-51
2021/01/11 12:35:36;;;;;;;3.65;3.24;;;;;;;18.96;43.44;101009.08;;;;-49
2021/01/11 12:38:36;;;;;;;5.19;3.33;;;;;;;19.01;43.62;101005.41;;;;-48
2021/01/11 12:41:36;;;;;;;5.86;3.52;;;;;;;19.06;43.49;101003.97;;;;-50
2021/01/11 12:44:36;;;;;;;6.32;3.43;;;;;;;19.06;43.55;101001.69;;;;-58
2021/01/11 12:47:36;;;;;;;5.03;3.21;;;;;;;19.09;43.58;100999.08;;;;-47
2021/01/11 12:50:36;;;;;;;8.80;3.31;;;;;;;19.10;43.35;100997.21;;;;-51
2021/01/11 12:53:36;;;;;;;6.14;3.31;;;;;;;19.11;43.41;100996.23;;;;-51
2021/01/11 12:56:36;;;;;;;5.65;3.39;;;;;;;19.14;43.49;100989.97;;;;-53
2021/01/11 12:59:36;;;;;;;6.23;3.23;;;;;;;19.14;43.54;100991.51;;;;-54
2021/01/11 13:02:36;;;;;;;3.89;3.19;;;;;;;19.17;43.68;100989.02;;;;-50
2021/01/11 13:05:36;;;;;;;5.49;3.13;;;;;;;19.18;43.62;100985.73;;;;-54
2021/01/11 13:08:36;;;;;;;4.47;3.00;;;;;;;19.21;43.68;100988.12;;;;-51
2021/01/11 13:11:37;;;;;;;4.15;3.00;;;;;;;19.22;43.65;100981.00;;;;-50
2021/01/11 13:14:36;;;;;;;3.76;3.11;;;;;;;19.25;43.53;100978.52;;;;-52
2021/01/11 13:17:36;;;;;;;5.48;3.14;;;;;;;19.26;43.37;100978.63;;;;-55
2021/01/11 13:20:37;;;;;;;4.45;3.21;;;;;;;19.24;43.38;100973.31;;;;-57
2021/01/11 13:23:36;;;;;;;4.26;3.34;;;;;;;19.25;43.41;100963.89;;;;-53
2021/01/11 13:26:36;;;;;;;4.04;3.14;;;;;;;19.27;43.38;100960.83;;;;-54
2021/01/11 13:29:36;;;;;;;3.42;3.12;;;;;;;19.28;43.53;100962.33;;;;-54
2021/01/11 13:32:36;;;;;;;3.62;3.11;;;;;;;19.29;43.40;100965.09;;;;-56
2021/01/11 13:35:36;;;;;;;3.97;3.20;;;;;;;19.32;43.38;100964.14;;;;-55
2021/01/11 13:38:36;;;;;;;3.73;3.27;;;;;;;19.30;43.34;100960.16;;;;-52
2021/01/11 13:41:36;;;;;;;9.33;3.90;;;;;;;19.32;42.87;100950.89;;;;-53
2021/01/11 13:44:36;;;;;;;6.21;3.49;;;;;;;19.33;43.06;100951.09;;;;-51
2021/01/11 13:47:36;;;;;;;3.55;3.25;;;;;;;19.34;43.17;100946.21;;;;-57
2021/01/11 13:50:36;;;;;;;4.45;3.21;;;;;;;19.33;43.14;100943.53;;;;-53
2021/01/11 13:53:36;;;;;;;4.07;3.27;;;;;;;19.35;43.07;100941.13;;;;-54
2021/01/11 13:56:38;;;;;;;4.33;3.33;;;;;;;19.38;42.98;100939.37;;;;-46
2021/01/11 13:59:36;;;;;;;6.82;3.19;;;;;;;19.38;42.93;100940.83;;;;-53
2021/01/11 14:02:36;;;;;;;4.94;3.02;;;;;;;19.37;42.95;100938.95;;;;-53
2021/01/11 14:05:36;;;;;;;5.20;3.10;;;;;;;19.40;43.04;100933.38;;;;-51
2021/01/11 14:08:36;;;;;;;3.73;3.15;;;;;;;19.42;43.14;100931.63;;;;-51
2021/01/11 14:11:36;;;;;;;3.98;3.00;;;;;;;19.41;43.09;100935.69;;;;-50
2021/01/11 14:14:36;;;;;;;3.40;2.83;;;;;;;19.43;43.26;100936.77;;;;-49
2021/01/11 14:17:36;;;;;;;3.29;2.95;;;;;;;19.43;43.23;100926.29;;;;-49
2021/01/11 14:20:36;;;;;;;3.43;3.02;;;;;;;19.43;43.07;100921.00;;;;-57
2021/01/11 14:23:36;;;;;;;4.11;2.95;;;;;;;19.45;43.18;100927.94;;;;-55
2021/01/11 14:26:36;;;;;;;3.59;3.01;;;;;;;19.45;43.18;100929.89;;;;-56
2021/01/11 14:29:36;;;;;;;3.22;2.91;;;;;;;19.46;43.32;100929.84;;;;-54
2021/01/11 14:32:36;;;;;;;3.17;2.87;;;;;;;19.48;43.32;100929.11;;;;-57
2021/01/11 14:35:36;;;;;;;4.89;2.96;;;;;;;19.49;43.30;100923.61;;;;-61
2021/01/11 14:38:36;;;;;;;3.97;2.77;;;;;;;19.50;43.22;100920.36;;;;-50
2021/01/11 14:41:36;;;;;;;3.57;2.93;;;;;;;19.51;43.34;100922.55;;;;-47
2021/01/11 14:44:36;;;;;;;3.91;3.00;;;;;;;19.50;43.24;100920.19;;;;-54
2021/01/11 14:47:36;;;;;;;3.47;2.78;;;;;;;19.53;43.31;100912.77;;;;-49
2021/01/11 14:50:41;;;;;;;3.39;2.89;;;;;;;19.53;43.30;100913.18;;;;-51
2021/01/11 14:53:36;;;;;;;3.14;2.83;;;;;;;19.53;43.29;100915.29;;;;-52
2021/01/11 14:56:36;;;;;;;3.50;2.61;;;;;;;19.54;43.28;100910.17;;;;-54
2021/01/11 14:59:36;;;;;;;3.24;2.86;;;;;;;19.54;43.35;100914.56;;;;-51
2021/01/11 15:02:36;;;;;;;3.29;2.91;;;;;;;19.56;43.37;100919.70;;;;-51
2021/01/11 15:05:36;;;;;;;3.49;2.84;;;;;;;19.58;43.14;100919.08;;;;-54
2021/01/11 15:08:36;;;;;;;3.72;3.01;;;;;;;19.55;43.04;100911.01;;;;-54
2021/01/11 15:11:36;;;;;;;3.26;2.93;;;;;;;19.54;43.00;100910.73;;;;-54
2021/01/11 15:14:36;;;;;;;3.17;2.83;;;;;;;19.53;42.86;100911.03;;;;-54
2021/01/11 15:17:36;;;;;;;3.12;2.69;;;;;;;19.50;42.89;100912.06;;;;-54
2021/01/11 15:20:36;;;;;;;3.25;2.81;;;;;;;19.49;42.91;100915.48;;;;-54
2021/01/11 15:23:36;;;;;;;3.07;2.70;;;;;;;19.50;43.10;100914.34;;;;-48
2021/01/11 15:26:36;;;;;;;3.93;2.77;;;;;;;19.51;43.28;100904.45;;;;-50
2021/01/11 15:29:36;;;;;;;4.31;2.78;;;;;;;19.53;43.27;100898.95;;;;-56
2021/01/11 15:32:36;;;;;;;3.30;2.77;;;;;;;19.54;43.35;100895.21;;;;-52
2021/01/11 15:35:36;;;;;;;3.25;2.83;;;;;;;19.55;43.26;100896.05;;;;-51
2021/01/11 15:38:36;;;;;;;3.79;2.85;;;;;;;19.55;43.29;100895.73;;;;-52
2021/01/11 15:41:36;;;;;;;3.12;2.81;;;;;;;19.57;43.35;100895.27;;;;-52
2021/01/11 15:44:36;;;;;;;3.89;2.71;;;;;;;19.57;43.35;100892.34;;;;-59
2021/01/11 15:47:36;;;;;;;3.91;2.79;;;;;;;19.58;43.34;100891.12;;;;-47
2021/01/11 15:50:36;;;;;;;3.12;2.71;;;;;;;19.58;43.13;100889.17;;;;-45
2021/01/11 15:53:36;;;;;;;3.80;3.08;;;;;;;19.57;42.73;100895.97;;;;-45
2021/01/11 15:56:36;;;;;;;6.15;3.51;;;;;;;19.58;42.32;100902.17;;;;-52
2021/01/11 15:59:36;;;;;;;3.43;3.00;;;;;;;19.58;42.68;100900.22;;;;-52
2021/01/11 16:02:36;;;;;;;5.10;3.10;;;;;;;19.59;42.81;100898.38;;;;-54
2021/01/11 16:05:36;;;;;;;4.24;3.11;;;;;;;19.61;43.07;100893.34;;;;-48
2021/01/11 16:08:36;;;;;;;4.15;2.91;;;;;;;19.62;42.85;100899.22;;;;-47
2021/01/11 16:11:36;;;;;;;4.41;2.85;;;;;;;19.62;42.93;100895.32;;;;-56
2021/01/11 16:14:36;;;;;;;3.31;2.99;;;;;;;19.62;43.00;100899.70;;;;-57
2021/01/11 16:17:36;;;;;;;3.31;2.66;;;;;;;19.62;42.95;100904.59;;;;-59
2021/01/11 16:20:36;;;;;;;6.21;2.97;;;;;;;19.62;43.03;100906.54;;;;-59
2021/01/11 16:23:36;;;;;;;4.03;3.01;;;;;;;19.65;43.16;100892.45;;;;-53
2021/01/11 16:26:36;;;;;;;3.65;2.78;;;;;;;19.64;43.06;100884.45;;;;-51
2021/01/11 16:29:36;;;;;;;3.01;2.69;;;;;;;19.65;43.16;100883.91;;;;-51
2021/01/11 16:32:37;;;;;;;4.35;3.02;;;;;;;19.67;42.91;100881.33;;;;-50
2021/01/11 16:35:36;;;;;;;4.82;2.91;;;;;;;19.65;42.89;100885.17;;;;-50
2021/01/11 16:38:36;;;;;;;3.09;2.69;;;;;;;19.62;42.95;100883.04;;;;-50
2021/01/11 16:41:36;;;;;;;3.42;2.80;;;;;;;19.61;42.96;100882.15;;;;-53
2021/01/11 16:44:36;;;;;;;3.01;2.71;;;;;;;19.60;42.92;100877.16;;;;-54